»·PEaware :: DAL387 KBOI-KSLC

DAL387 :: KBOI-KSLC

FLIGHT INFORMATION

Flight Status: Arrived
Operator:
Delta Air Lines
More flights by this operator :: More flights under this callsign
Pilot: Anonymous 20536 (20536)
Aircraft: AIRBUS A319
(A319)
More flights by this aircraft type
Origin: KBOI Boise Air Terminal/Gowen
United States
Destination: KSLC Salt Lake City Intl
United States
More flights between these airports :: More routes between these airports
Route: +BOI3 ROARR BYI SKEES5
File this flight plan on PilotEdge
Remarks:
Altitude:
(Current/Filed)
31,000ft
Speed:
(Current/Filed)
380kts
Departed: 26-Sep-18 12:58 PM
Arrived: 26-Sep-18 01:54 PM
Distance/Time
Traveled:
252nm/0:56
Distance/Time
To Go:
Arrived

Flight Plot

Page will automatically refresh every two minutes.

Flight plan parsing failed; only flown route is shown


Map Options




Map Legend


Flown Route
Filed Route
Departure Airport
Arrival Airport
Navaid (VOR, NDB)
Fix

Horizontal Profiles

Position Reports

Time Latitude Longitude Heading Altitude Ground
Speed
26-Sep-18 12:47 43.567222 -116.220651 23 2880ft 0kts
26-Sep-18 12:48 43.567222 -116.220651 23 2880ft 0kts
26-Sep-18 12:49 43.567222 -116.220651 23 2880ft 0kts
26-Sep-18 12:50 43.567222 -116.220651 23 2880ft 0kts
26-Sep-18 12:51 43.567222 -116.220651 23 2880ft 0kts
26-Sep-18 12:52 43.567223 -116.220650 23 2880ft 0kts
26-Sep-18 12:53 43.567223 -116.220650 23 2880ft 0kts
26-Sep-18 12:54 43.566839 -116.220939 55 2880ft 5kts
26-Sep-18 12:55 43.566582 -116.220696 117 2880ft 9kts
26-Sep-18 12:56 43.565748 -116.218084 113 2880ft 0kts
26-Sep-18 12:57 43.564259 -116.215923 114 2880ft 19kts
26-Sep-18 12:58 43.561911 -116.209042 115 2880ft 20kts
26-Sep-18 12:59 43.559633 -116.202571 148 2880ft 4kts
26-Sep-18 13:00 43.560838 -116.209488 295 2880ft 100kts
26-Sep-18 13:01 43.580378 -116.266735 291 4512ft 177kts
26-Sep-18 13:02 43.597271 -116.342552 293 5770ft 244kts
26-Sep-18 13:03 43.629750 -116.432448 302 7835ft 269kts
26-Sep-18 13:04 43.667954 -116.522776 297 10495ft 284kts
26-Sep-18 13:05 43.706434 -116.634602 297 11774ft 362kts
26-Sep-18 13:06 43.747709 -116.771608 292 13836ft 403kts
26-Sep-18 13:07 43.742339 -116.922517 233 16440ft 436kts
26-Sep-18 13:08 43.634456 -116.964214 159 19824ft 435kts
26-Sep-18 13:09 43.562785 -116.837492 110 21807ft 439kts
26-Sep-18 13:10 43.514296 -116.680862 110 23548ft 451kts
26-Sep-18 13:11 43.463967 -116.520953 110 25165ft 462kts
26-Sep-18 13:12 43.412110 -116.357606 110 26638ft 471kts
26-Sep-18 13:13 43.359962 -116.193993 111 27924ft 480kts
26-Sep-18 13:14 43.306083 -116.026340 111 29421ft 480kts
26-Sep-18 13:15 43.252121 -115.859585 111 30886ft 476kts
26-Sep-18 13:16 43.198162 -115.693916 111 31032ft 477kts
26-Sep-18 13:17 43.144120 -115.528873 111 31020ft 477kts
26-Sep-18 13:18 43.089639 -115.363547 111 31019ft 477kts
26-Sep-18 13:19 43.035996 -115.201508 111 31018ft 478kts
26-Sep-18 13:20 42.981171 -115.036999 111 31067ft 478kts
26-Sep-18 13:21 42.925855 -114.872175 111 31264ft 477kts
26-Sep-18 13:22 42.870981 -114.710582 111 31313ft 477kts
26-Sep-18 13:23 42.815093 -114.546748 111 31321ft 477kts
26-Sep-18 13:24 42.759294 -114.383426 111 31321ft 477kts
26-Sep-18 13:25 42.703904 -114.221957 111 31320ft 477kts
26-Sep-18 13:26 42.647784 -114.059562 111 31321ft 477kts
26-Sep-18 13:27 42.589154 -113.898382 118 31306ft 480kts
26-Sep-18 13:28 42.502362 -113.760459 133 31304ft 485kts
26-Sep-18 13:29 42.406148 -113.632588 132 31303ft 487kts
26-Sep-18 13:30 42.310034 -113.504524 132 31304ft 486kts
26-Sep-18 13:31 42.214038 -113.377308 132 31194ft 476kts
26-Sep-18 13:32 42.125716 -113.260546 132 30548ft 432kts
26-Sep-18 13:33 42.041166 -113.149263 132 28754ft 430kts
26-Sep-18 13:34 41.956748 -113.038770 132 27042ft 420kts
26-Sep-18 13:35 41.880096 -112.938966 133 25473ft 410kts
26-Sep-18 13:36 41.800812 -112.836363 133 23817ft 399kts
26-Sep-18 13:37 41.722305 -112.734756 133 22190ft 387kts
26-Sep-18 13:38 41.645992 -112.636296 133 20556ft 377kts
26-Sep-18 13:39 41.571689 -112.540775 134 18949ft 367kts
26-Sep-18 13:40 41.494669 -112.455087 146 17104ft 356kts
26-Sep-18 13:41 41.411364 -112.393111 152 16345ft 342kts
26-Sep-18 13:42 41.330632 -112.335939 153 14853ft 338kts
26-Sep-18 13:43 41.248909 -112.278096 153 13316ft 330kts
26-Sep-18 13:44 41.170790 -112.219467 151 11944ft 316kts
26-Sep-18 13:45 41.095984 -112.162734 154 11011ft 307kts
26-Sep-18 13:46 41.014426 -112.133580 173 10984ft 304kts
26-Sep-18 13:47 40.932117 -112.116051 173 10962ft 283kts
26-Sep-18 13:48 40.863263 -112.104636 178 10784ft 251kts
26-Sep-18 13:49 40.794480 -112.097458 178 9566ft 245kts
26-Sep-18 13:50 40.727757 -112.083131 168 8359ft 242kts
26-Sep-18 13:51 40.663314 -112.062065 168 7222ft 236kts
26-Sep-18 13:52 40.646956 -112.001475 43 6532ft 204kts
26-Sep-18 13:53 40.688123 -111.961779 350 5986ft 153kts
26-Sep-18 13:54 40.728519 -111.967838 351 5187ft 145kts
26-Sep-18 13:55 40.768501 -111.972428 352 4380ft 143kts
26-Sep-18 13:56 40.791246 -111.975323 336 4236ft 20kts
26-Sep-18 13:57 40.790196 -111.979011 261 4236ft 15kts
26-Sep-18 13:58 40.789088 -111.980789 228 4236ft 0kts
26-Sep-18 13:59 40.789088 -111.980789 228 4236ft 0kts

Navigation Log

Ident Type
Flight plan parsing failed, navigation log unavailable